Time;durP1;ratioP1;P1;durP2;ratioP2;P2;SDS_P1;SDS_P2;PMS_P1;PMS_P2;Temp;Humidity;BMP_temperature;BMP_pressure;BME280_temperature;BME280_humidity;BME280_pressure;Samples;Min_cycle;Max_cycle;Signal;HPM_P1;HPM_P2
2022/05/20 00:01:57;;;;;;;;;1.50;1.50;;;;;25.45;38.62;101529.03;4977897;28;45234;-57
2022/05/20 00:04:22;;;;;;;;;2.00;2.00;;;;;25.45;39.00;101539.66;4977670;28;45344;-54
2022/05/20 00:06:48;;;;;;;;;3.50;2.25;;;;;25.42;38.82;101531.88;4977187;28;48830;-56
2022/05/20 00:09:13;;;;;;;;;2.00;2.00;;;;;25.42;38.82;101532.75;4977539;28;45389;-57
2022/05/20 00:11:38;;;;;;;;;2.75;1.00;;;;;25.43;38.92;101536.22;4977572;28;45314;-53
2022/05/20 00:14:07;;;;;;;;;1.75;1.50;;;;;25.42;38.69;101527.44;4977267;28;45820;-57
2022/05/20 00:16:36;;;;;;;;;3.50;1.25;;;;;25.41;39.13;101516.94;4977231;28;45739;-54
2022/05/20 00:19:06;;;;;;;;;1.75;1.75;;;;;25.42;38.69;101518.59;4977429;28;45357;-56
2022/05/20 00:21:33;;;;;;;;;1.00;1.00;;;;;25.41;38.48;101512.47;4977507;28;45506;-56
2022/05/20 00:23:58;;;;;;;;;2.25;2.25;;;;;25.41;38.66;101517.78;4977130;28;46250;-57
2022/05/20 00:26:24;;;;;;;;;2.00;2.00;;;;;25.42;38.73;101510.66;4977972;28;45260;-56
2022/05/20 00:28:50;;;;;;;;;4.25;2.00;;;;;25.40;38.75;101504.59;4976499;28;45218;-57
2022/05/20 00:31:16;;;;;;;;;1.25;1.25;;;;;25.41;38.94;101506.31;4977391;28;45510;-58
2022/05/20 00:33:42;;;;;;;;;1.50;1.50;;;;;25.41;38.83;101517.78;4977145;28;45217;-58
2022/05/20 00:36:08;;;;;;;;;1.25;1.25;;;;;25.42;38.46;101513.28;4977038;28;45560;-57
2022/05/20 00:38:34;;;;;;;;;0.75;0.75;;;;;25.41;38.34;101512.47;4977133;28;45326;-56
2022/05/20 00:41:00;;;;;;;;;2.00;2.00;;;;;25.41;38.11;101515.13;4977332;28;45427;-57
2022/05/20 00:43:26;;;;;;;;;3.00;2.00;;;;;25.39;38.38;101509.03;4977127;28;46859;-55
2022/05/20 00:45:53;;;;;;;;;2.00;2.00;;;;;25.39;38.32;101508.19;4977130;28;45285;-56
2022/05/20 00:48:19;;;;;;;;;2.50;1.75;;;;;25.40;38.40;101520.50;4977041;28;45381;-55
2022/05/20 00:50:50;;;;;;;;;1.75;1.75;;;;;25.40;38.38;101515.19;4977257;28;45392;-58
2022/05/20 00:53:19;;;;;;;;;3.25;1.50;;;;;25.41;38.21;101511.63;4976710;28;45401;-58
2022/05/20 00:55:46;;;;;;;;;2.50;1.00;;;;;25.40;38.29;101504.59;4976779;28;45432;-58
2022/05/20 00:58:17;;;;;;;;;1.25;1.25;;;;;25.40;38.30;101497.50;4977522;28;45281;-58
2022/05/20 01:00:47;;;;;;;;;1.25;1.00;;;;;25.40;38.49;101501.94;4977280;28;45296;-58
2022/05/20 01:03:15;;;;;;;;;1.00;1.00;;;;;25.40;37.63;101509.88;4975458;28;46981;-58
2022/05/20 01:05:48;;;;;;;;;1.00;1.00;;;;;25.39;37.70;101513.50;4976548;28;45843;-58
2022/05/20 01:08:18;;;;;;;;;1.00;1.00;;;;;25.38;37.99;101502.00;4976902;28;45405;-58
2022/05/20 01:10:44;;;;;;;;;2.25;2.25;;;;;25.38;37.78;101488.75;4975756;28;45313;-58
2022/05/20 01:13:11;;;;;;;;;2.00;1.00;;;;;25.38;37.74;101502.00;4976641;28;45209;-57
2022/05/20 01:15:37;;;;;;;;;0.75;0.75;;;;;25.36;37.54;101482.69;4976712;28;45202;-58
2022/05/20 01:18:02;;;;;;;;;0.50;0.50;;;;;25.36;37.47;101474.72;4976911;28;45247;-58
2022/05/20 01:20:32;;;;;;;;;2.00;2.00;;;;;25.37;37.61;101465.81;4976930;28;45693;-56
2022/05/20 01:23:01;;;;;;;;;2.75;1.00;;;;;25.36;37.08;101472.06;4976691;28;45345;-58
2022/05/20 01:25:29;;;;;;;;;3.00;1.00;;;;;25.37;37.44;101467.63;4976861;28;45667;-57
2022/05/20 01:27:55;;;;;;;;;1.00;1.00;;;;;25.36;37.38;101460.63;4976999;28;45677;-56
2022/05/20 01:30:23;;;;;;;;;3.00;1.25;;;;;25.34;37.19;101454.56;4976769;28;45395;-54
2022/05/20 01:32:49;;;;;;;;;2.00;1.00;;;;;25.34;36.87;101459.84;4976274;28;46272;-56
2022/05/20 01:35:22;;;;;;;;;1.00;1.00;;;;;25.32;37.19;101460.81;4976391;28;45328;-58
2022/05/20 01:37:47;;;;;;;;;1.00;1.00;;;;;25.32;36.90;101446.72;4976565;28;45444;-57
2022/05/20 01:40:12;;;;;;;;;2.00;1.00;;;;;25.32;37.19;101428.13;4977726;28;45555;-57
2022/05/20 01:42:49;;;;;;;;;2.50;1.00;;;;;25.30;36.81;101412.28;4979401;28;45397;-57
2022/05/20 01:45:23;;;;;;;;;1.50;1.50;;;;;25.31;37.52;101431.75;4979630;28;45277;-58
2022/05/20 01:48:27;;;;;;;;;2.00;2.00;;;;;25.30;37.24;101419.41;4979524;28;45373;-56
2022/05/20 01:50:55;;;;;;;;;2.50;1.25;;;;;25.29;37.39;101423.88;4979891;28;45459;-56
2022/05/20 01:53:38;;;;;;;;;1.00;1.00;;;;;25.29;37.00;101420.38;4979405;28;45420;-57
2022/05/20 01:56:12;;;;;;;;;2.75;1.50;;;;;25.28;37.20;101416.88;4979513;28;45675;-57
2022/05/20 01:58:47;;;;;;;;;1.25;1.00;;;;;25.28;37.42;101418.66;4979535;28;45466;-56
2022/05/20 02:01:18;;;;;;;;;1.25;1.25;;;;;25.27;37.48;101412.53;4979714;28;45511;-55
2022/05/20 02:03:52;;;;;;;;;1.00;1.00;;;;;25.27;36.77;101417.84;4979210;28;46145;-56
2022/05/20 02:06:33;;;;;;;;;3.50;1.00;;;;;25.27;36.82;101412.53;4979241;28;45348;-56
2022/05/20 02:09:02;;;;;;;;;2.00;2.00;;;;;25.28;36.88;101410.72;4979761;28;45273;-56
2022/05/20 02:11:41;;;;;;;;;0.75;0.75;;;;;25.25;37.52;101393.19;4980073;28;45482;-54
2022/05/20 02:14:15;;;;;;;;;1.25;1.25;;;;;25.27;37.45;101403.69;4979149;28;46227;-55
2022/05/20 02:16:47;;;;;;;;;2.75;1.00;;;;;25.26;36.98;101402.88;4979087;28;45824;-54
2022/05/20 02:19:21;;;;;;;;;3.00;2.00;;;;;25.26;36.96;101394.03;4979530;28;45336;-56
2022/05/20 02:21:51;;;;;;;;;1.00;1.00;;;;;25.28;37.40;101389.47;4979598;28;45298;-54
2022/05/20 02:24:21;;;;;;;;;2.00;1.00;;;;;25.27;37.10;101391.31;4978846;28;46670;-56
2022/05/20 02:27:00;;;;;;;;;2.00;2.00;;;;;25.28;37.12;101384.19;4977864;28;45653;-54
2022/05/20 02:29:39;;;;;;;;;1.75;1.00;;;;;25.26;37.22;101381.63;4979055;28;45438;-54
2022/05/20 02:32:20;;;;;;;;;2.75;2.00;;;;;25.27;37.07;101393.94;4979209;28;45413;-53
2022/05/20 02:34:46;;;;;;;;;1.50;1.00;;;;;25.27;37.46;101388.66;4978781;28;45389;-53
2022/05/20 02:37:20;;;;;;;;;1.00;1.00;;;;;25.26;37.40;101384.28;4978831;28;45365;-52
2022/05/20 02:39:45;;;;;;;;;2.75;1.25;;;;;25.26;37.46;101381.63;4978953;28;45285;-54
2022/05/20 02:42:11;;;;;;;;;2.00;1.00;;;;;25.26;37.36;101380.78;5010664;28;45598;-53
2022/05/20 02:44:36;;;;;;;;;5.00;1.00;;;;;25.26;37.32;101380.78;4978638;28;46085;-53
2022/05/20 02:47:03;;;;;;;;;2.00;2.00;;;;;25.26;37.41;101378.13;4978703;28;49624;-52
2022/05/20 02:49:29;;;;;;;;;5.00;3.00;;;;;25.21;36.79;101367.81;4979092;28;45494;-53
2022/05/20 02:51:54;;;;;;;;;1.25;1.25;;;;;25.14;36.59;101370.03;4978217;28;45313;-55
2022/05/20 02:54:19;;;;;;;;;4.00;2.00;;;;;25.10;36.58;101370.34;4978554;28;46063;-55
2022/05/20 02:56:45;;;;;;;;;2.00;2.00;;;;;25.01;36.88;101370.00;4978628;28;45438;-56
2022/05/20 03:04:40;;;;;;;;;3.00;2.00;;;;;24.89;37.25;101378.75;4978419;28;45478;-58
2022/05/20 03:07:05;;;;;;;;;2.00;2.00;;;;;24.84;37.42;101375.59;4978390;28;45849;-54
2022/05/20 03:09:30;;;;;;;;;2.00;2.00;;;;;24.81;37.07;101381.06;4978829;28;45423;-54
2022/05/20 03:11:56;;;;;;;;;2.00;2.00;;;;;24.77;37.10;101382.22;4978595;28;45287;-55
2022/05/20 03:14:22;;;;;;;;;2.00;2.00;;;;;24.70;37.04;101361.41;4978173;28;46280;-56
2022/05/20 03:16:50;;;;;;;;;2.00;2.00;;;;;24.68;37.30;101367.75;4978209;28;45810;-56
2022/05/20 03:19:16;;;;;;;;;1.00;1.00;;;;;24.63;37.25;101368.06;4978310;28;45305;-56
2022/05/20 03:21:42;;;;;;;;;3.00;2.00;;;;;24.60;37.37;101377.97;4978551;28;45400;-55
2022/05/20 03:24:09;;;;;;;;;3.00;2.00;;;;;24.57;38.02;101371.06;4978040;28;45337;-54
2022/05/20 03:26:35;;;;;;;;;2.00;2.00;;;;;24.51;37.50;101363.53;4978388;28;45730;-54
2022/05/20 03:29:02;;;;;;;;;2.75;1.00;;;;;24.50;38.04;101372.44;4978199;28;45221;-54
2022/05/20 03:31:28;;;;;;;;;1.50;1.25;;;;;24.47;37.74;101372.63;4977109;28;45558;-53
2022/05/20 03:33:53;;;;;;;;;3.00;1.00;;;;;24.43;37.52;101373.75;4977873;28;45504;-54
2022/05/20 03:36:19;;;;;;;;;2.50;2.00;;;;;24.42;37.97;101369.44;4977919;28;45301;-54
2022/05/20 03:38:45;;;;;;;;;2.00;2.00;;;;;24.33;37.58;101355.78;4978050;28;45451;-55
2022/05/20 03:41:10;;;;;;;;;1.00;0.00;;;;;24.37;37.72;101361.75;4978246;28;45471;-54
2022/05/20 03:43:37;;;;;;;;;3.75;1.00;;;;;24.34;37.80;101356.66;4977700;28;45527;-54
2022/05/20 03:46:03;;;;;;;;;2.25;1.50;;;;;24.31;38.12;101355.03;4976933;28;45701;-55
2022/05/20 03:48:29;;;;;;;;;4.25;3.25;;;;;24.32;38.28;101358.56;4977754;28;45277;-55
2022/05/20 03:50:54;;;;;;;;;3.00;2.00;;;;;24.31;38.19;101352.38;4977776;28;45505;-55
2022/05/20 03:53:19;;;;;;;;;2.00;2.00;;;;;24.28;37.90;101342.00;4977578;28;47157;-56
2022/05/20 03:55:45;;;;;;;;;3.00;3.00;;;;;24.27;37.83;101337.66;4977327;28;54247;-56
2022/05/20 03:58:11;;;;;;;;;2.75;2.75;;;;;24.27;37.72;101347.38;4977764;28;45425;-54
2022/05/20 04:03:22;;;;;;;;;2.25;2.25;;;;;24.21;38.20;101336.25;4976398;28;45253;-57
2022/05/20 04:05:47;;;;;;;;;2.75;2.00;;;;;24.19;38.18;101334.66;4977303;28;45309;-57
2022/05/20 04:08:13;;;;;;;;;3.75;2.00;;;;;24.15;38.07;101330.47;4977579;28;45562;-55
2022/05/20 04:10:38;;;;;;;;;2.00;2.00;;;;;24.15;38.49;101341.91;4977740;28;45448;-55
2022/05/20 04:13:04;;;;;;;;;3.00;2.25;;;;;24.13;38.27;101338.53;4977642;28;45393;-57
2022/05/20 04:15:29;;;;;;;;;3.00;3.00;;;;;24.09;38.48;101332.56;4977268;28;45314;-57
2022/05/20 04:17:54;;;;;;;;;3.75;2.75;;;;;24.08;38.75;101322.06;4977539;28;45451;-57
2022/05/20 04:20:20;;;;;;;;;2.25;2.25;;;;;24.07;38.49;101323.00;4977323;28;45424;-55
2022/05/20 04:22:45;;;;;;;;;4.50;3.00;;;;;24.05;38.34;101328.41;4975899;28;47277;-57
2022/05/20 04:25:12;;;;;;;;;2.00;2.00;;;;;24.03;38.78;101327.66;4977204;28;45417;-57
2022/05/20 04:27:38;;;;;;;;;2.50;2.00;;;;;24.02;38.46;101349.78;4977568;28;45364;-54
2022/05/20 04:30:04;;;;;;;;;2.25;1.50;;;;;24.03;39.11;101353.31;4977490;28;45527;-57
2022/05/20 04:32:29;;;;;;;;;3.00;2.75;;;;;24.02;39.00;101346.31;5008704;28;45945;-56
2022/05/20 04:34:55;;;;;;;;;2.00;2.00;;;;;23.99;38.87;101342.03;4977042;28;45313;-56
2022/05/20 04:37:22;;;;;;;;;4.50;2.00;;;;;23.97;39.25;101349.25;4977189;28;45352;-56
2022/05/20 04:39:47;;;;;;;;;2.00;2.00;;;;;23.99;38.69;101346.47;4977294;28;45508;-56
2022/05/20 04:47:41;;;;;;;;;2.00;2.00;;;;;23.95;38.77;101351.13;4976971;28;45287;-55
2022/05/20 04:50:07;;;;;;;;;2.50;2.50;;;;;23.94;39.52;101360.81;4977423;28;45599;-56
2022/05/20 04:52:32;;;;;;;;;3.50;2.50;;;;;23.93;38.97;101368.88;4976988;28;46527;-55
2022/05/20 04:54:58;;;;;;;;;3.25;2.50;;;;;23.90;39.37;101369.91;4976741;28;45410;-55
2022/05/20 04:57:44;;;;;;;;;2.00;2.00;;;;;23.92;39.62;101367.16;4977032;28;45345;-56
2022/05/20 05:00:20;;;;;;;;;3.50;3.00;;;;;23.89;39.89;101367.34;4977298;28;45432;-53
2022/05/20 05:02:45;;;;;;;;;4.00;3.00;;;;;23.88;39.60;101368.28;4976646;28;46350;-53
2022/05/20 05:05:14;;;;;;;;;4.00;2.75;;;;;23.82;40.14;101372.16;4976903;28;45471;-56
2022/05/20 05:07:43;;;;;;;;;3.00;3.00;;;;;23.83;39.88;101370.38;4977006;28;45246;-57
2022/05/20 05:10:10;;;;;;;;;2.75;2.50;;;;;23.82;40.16;101371.31;4977235;28;45451;-55
2022/05/20 05:12:35;;;;;;;;;3.00;3.00;;;;;23.77;40.36;101376.88;4976644;28;45428;-55
2022/05/20 05:15:01;;;;;;;;;5.00;3.00;;;;;23.76;40.20;101372.53;4977422;28;45305;-56
2022/05/20 05:20:14;;;;;;;;;5.50;3.75;;;;;23.72;40.31;101371.88;4980463;28;45731;-55
2022/05/20 05:22:40;;;;;;;;;4.00;4.00;;;;;23.69;40.79;101366.75;4980146;28;46418;-56
2022/05/20 05:25:06;;;;;;;;;5.50;4.25;;;;;23.68;40.85;101367.69;4979798;28;45337;-54
2022/05/20 05:27:32;;;;;;;;;4.50;4.00;;;;;23.65;41.06;101357.28;4980019;28;45342;-55
2022/05/20 05:29:57;;;;;;;;;4.00;4.00;;;;;23.59;40.86;101355.03;4980184;28;45571;-54
2022/05/20 05:32:23;;;;;;;;;5.00;3.25;;;;;23.49;41.11;101353.88;4978458;28;46323;-50
2022/05/20 05:34:48;;;;;;;;;4.25;4.25;;;;;23.45;41.28;101350.59;4979873;28;45480;-54
2022/05/20 05:37:13;;;;;;;;;5.25;4.00;;;;;23.35;41.02;101349.44;4979777;28;45485;-54
2022/05/20 05:39:39;;;;;;;;;4.50;4.00;;;;;23.30;41.56;101350.53;4980288;28;45635;-54
2022/05/20 05:42:04;;;;;;;;;3.75;3.75;;;;;23.24;41.78;101344.75;4979507;28;46237;-53
2022/05/20 05:44:30;;;;;;;;;4.75;4.00;;;;;23.17;41.91;101336.31;4979626;28;45292;-54
2022/05/20 05:46:55;;;;;;;;;5.00;3.25;;;;;23.15;41.99;101325.00;4979702;28;45303;-54
2022/05/20 05:49:22;;;;;;;;;4.50;3.75;;;;;23.10;42.13;101324.38;4979716;28;45452;-56
2022/05/20 05:51:47;;;;;;;;;5.75;4.00;;;;;23.05;42.28;101308.81;4979376;28;47205;-56
2022/05/20 05:54:13;;;;;;;;;3.00;3.00;;;;;23.11;42.44;101307.59;4979654;28;45360;-54
2022/05/20 05:56:38;;;;;;;;;5.50;4.00;;;;;23.13;42.22;101303.91;4979746;28;45322;-54
2022/05/20 05:59:04;;;;;;;;;3.25;2.25;;;;;23.17;42.73;101321.31;4979615;28;45218;-56
2022/05/20 06:01:30;;;;;;;;;4.00;4.00;;;;;23.19;42.81;101321.22;4979193;28;46109;-55
2022/05/20 06:03:55;;;;;;;;;4.00;4.00;;;;;23.22;43.00;101334.28;4979305;28;45418;-55
2022/05/20 06:06:21;;;;;;;;;5.00;5.00;;;;;23.24;42.70;101336.81;4979307;28;45317;-53
2022/05/20 06:08:46;;;;;;;;;3.50;3.50;;;;;23.27;42.78;101350.72;4979398;28;45505;-53
2022/05/20 06:11:12;;;;;;;;;5.75;4.75;;;;;23.28;43.14;101354.22;4979524;28;45342;-55
2022/05/20 06:13:38;;;;;;;;;4.00;4.00;;;;;23.29;43.61;101359.41;4979185;28;45358;-53
2022/05/20 06:16:03;;;;;;;;;5.00;4.25;;;;;23.28;43.64;101352.41;4979271;28;45361;-55
2022/05/20 06:18:29;;;;;;;;;4.25;4.25;;;;;23.25;43.57;101342.03;4979424;28;45467;-56
2022/05/20 06:20:55;;;;;;;;;6.25;4.00;;;;;23.23;43.88;101333.34;4979080;28;46258;-55
2022/05/20 06:23:20;;;;;;;;;5.75;5.75;;;;;23.24;44.01;101324.47;4979105;28;45497;-52
2022/05/20 06:25:46;;;;;;;;;6.50;6.50;;;;;23.21;44.95;101305.25;4979096;28;45379;-54
2022/05/20 06:28:14;;;;;;;;;6.00;6.00;;;;;23.19;44.54;101278.06;4978544;28;45399;-54
2022/05/20 06:30:40;;;;;;;;;7.75;5.00;;;;;23.18;44.89;101250.75;4975990;28;45545;-55
2022/05/20 06:33:06;;;;;;;;;5.75;5.00;;;;;23.14;45.05;101242.16;4977413;28;45889;-54
2022/05/20 06:41:02;;;;;;;;;6.75;5.75;;;;;22.99;45.62;101257.16;4978780;28;45670;-54
2022/05/20 06:43:28;;;;;;;;;5.50;5.50;;;;;23.01;45.46;101275.53;4978519;28;45270;-55
2022/05/20 06:45:56;;;;;;;;;7.00;6.00;;;;;23.02;46.26;101287.81;4978767;28;45274;-56
2022/05/20 06:48:22;;;;;;;;;5.00;5.00;;;;;23.04;46.38;101285.09;4977790;28;45431;-57
2022/05/20 06:50:47;;;;;;;;;10.25;6.75;;;;;23.09;46.28;101257.47;4978486;28;46239;-55
2022/05/20 06:53:13;;;;;;;;;7.50;5.50;;;;;23.12;46.60;101230.81;4978892;28;45407;-54
2022/05/20 06:55:38;;;;;;;;;8.50;5.25;;;;;23.15;46.84;101185.69;4978475;28;45250;-55
2022/05/20 06:58:04;;;;;;;;;8.75;6.00;;;;;23.17;46.38;101160.00;4978898;28;45495;-55
2022/05/20 07:00:30;;;;;;;;;7.00;6.00;;;;;23.17;46.84;101117.69;4978406;28;46865;-55
2022/05/20 07:02:55;;;;;;;;;11.50;8.25;;;;;23.16;46.77;101078.97;4978372;28;45245;-55
2022/05/20 07:05:21;;;;;;;;;8.00;7.00;;;;;23.13;47.08;101092.38;4978552;28;45796;-55
2022/05/20 07:07:46;;;;;;;;;6.00;5.00;;;;;23.08;47.09;101090.97;4978905;28;45574;-57
2022/05/20 07:10:14;;;;;;;;;6.75;6.25;;;;;23.00;47.29;101067.66;4978649;28;46068;-56
2022/05/20 07:12:39;;;;;;;;;6.75;6.75;;;;;22.94;47.10;101068.06;4978346;28;45396;-55
2022/05/20 07:15:05;;;;;;;;;5.25;5.25;;;;;22.87;47.42;101062.28;4978423;28;45386;-56
2022/05/20 07:17:31;;;;;;;;;5.50;5.50;;;;;22.81;47.45;101079.38;5010221;28;45703;-57
2022/05/20 07:19:57;;;;;;;;;6.75;6.00;;;;;22.73;47.59;101083.41;4978144;28;45926;-56
2022/05/20 07:22:23;;;;;;;;;6.00;6.00;;;;;22.67;48.07;101089.94;4978210;28;45851;-56
2022/05/20 07:24:49;;;;;;;;;7.00;4.50;;;;;22.64;48.33;101111.28;4978295;28;45182;-54
2022/05/20 07:27:14;;;;;;;;;7.00;6.50;;;;;22.63;48.80;101128.06;4978690;28;45520;-57
2022/05/20 07:29:40;;;;;;;;;9.00;7.00;;;;;22.67;48.56;101129.56;4977813;28;50583;-57
2022/05/20 07:32:06;;;;;;;;;6.25;5.25;;;;;22.68;48.23;101110.13;4976345;28;45321;-57
2022/05/20 07:34:32;;;;;;;;;7.50;6.75;;;;;22.71;48.65;101112.59;4978110;28;45327;-56
2022/05/20 07:36:57;;;;;;;;;7.25;6.50;;;;;22.74;48.73;101125.63;4978279;28;45234;-55
2022/05/20 07:39:22;;;;;;;;;11.00;8.00;;;;;22.77;48.79;101138.63;4977656;28;46149;-55
2022/05/20 07:41:48;;;;;;;;;9.67;6.67;;;;;22.81;48.89;101140.16;4977832;28;52633;-55
2022/05/20 07:44:14;;;;;;;;;8.00;7.00;;;;;22.85;49.26;101148.75;4977999;28;45906;-56
2022/05/20 07:46:39;;;;;;;;;8.25;8.25;;;;;22.92;48.98;101191.50;4978014;28;45510;-58
2022/05/20 07:49:05;;;;;;;;;12.50;6.50;;;;;22.98;49.05;101201.72;4977584;28;46263;-52
2022/05/20 07:51:32;;;;;;;;;7.75;6.25;;;;;23.04;49.29;101203.16;4977815;28;45395;-56
2022/05/20 07:54:04;;;;;;;;;10.75;9.00;;;;;23.09;49.58;101214.28;4977770;28;45429;-56
2022/05/20 07:56:34;;;;;;;;;8.50;8.00;;;;;23.12;49.43;101278.41;4977976;28;45857;-55
2022/05/20 07:59:07;;;;;;;;;8.00;8.00;;;;;23.13;49.50;101214.00;4977342;28;46096;-56
2022/05/20 08:01:35;;;;;;;;;8.75;6.00;;;;;23.17;49.40;101217.31;4977386;28;45853;-56
2022/05/20 08:07:01;;;;;;;;;8.75;8.50;;;;;23.21;50.05;101196.84;4977777;28;45297;-55
2022/05/20 08:09:27;;;;;;;;;11.25;8.75;;;;;23.22;50.00;101183.56;4977237;28;46351;-55
2022/05/20 08:11:53;;;;;;;;;11.50;8.50;;;;;23.23;50.59;101187.03;4977420;28;45445;-56
2022/05/20 08:14:18;;;;;;;;;10.25;8.50;;;;;23.26;50.63;101181.56;4977878;28;45459;-57
2022/05/20 08:16:43;;;;;;;;;8.00;8.00;;;;;23.27;50.67;101186.75;4977544;28;45620;-52
2022/05/20 08:19:09;;;;;;;;;12.00;8.25;;;;;23.28;51.05;101182.31;4977081;28;45332;-54
2022/05/20 08:21:34;;;;;;;;;11.00;8.25;;;;;23.29;50.72;101189.31;4977311;28;45233;-54
2022/05/20 08:24:01;;;;;;;;;10.75;10.25;;;;;23.29;50.97;101182.22;4977309;28;45260;-55
2022/05/20 08:26:26;;;;;;;;;8.75;8.75;;;;;23.30;50.76;101156.63;4977515;28;45295;-56
2022/05/20 08:28:51;;;;;;;;;13.25;10.50;;;;;23.30;50.94;101168.06;4976978;28;45274;-55
2022/05/20 08:31:17;;;;;;;;;10.50;8.25;;;;;23.33;51.09;101184.69;4977531;28;45233;-55
2022/05/20 08:33:43;;;;;;;;;11.25;10.00;;;;;23.35;51.12;101180.16;4977251;28;45297;-56
2022/05/20 16:14:28;;;;;;;;;9.00;9.00;;;;;24.07;44.18;101619.59;5849956;22;46322;-57
2022/05/20 16:16:53;;;;;;;;;9.00;9.00;;;;;24.05;44.02;101622.34;5018212;28;44831;-58
2022/05/20 16:19:18;;;;;;;;;9.25;7.00;;;;;24.04;43.66;101625.94;5019795;28;44994;-59
2022/05/20 16:21:48;;;;;;;;;9.25;9.25;;;;;24.05;43.37;101621.47;5017216;28;46039;-57
2022/05/20 16:24:14;;;;;;;;;8.75;7.50;;;;;24.02;42.94;101625.16;5010648;28;45388;-56
2022/05/20 16:26:40;;;;;;;;;7.50;5.75;;;;;24.03;43.01;101633.97;5000884;28;45358;-57
2022/05/20 16:29:07;;;;;;;;;8.25;5.75;;;;;24.02;43.02;101637.56;5006349;28;45356;-56
2022/05/20 16:31:33;;;;;;;;;6.25;6.25;;;;;24.00;42.76;101629.69;5009380;28;46154;-57
2022/05/20 16:33:59;;;;;;;;;6.00;6.00;;;;;23.98;43.18;101628.91;5012536;28;44998;-57
2022/05/20 16:36:25;;;;;;;;;5.25;5.25;;;;;23.97;42.99;101632.53;5011440;28;45407;-57
2022/05/20 16:38:52;;;;;;;;;6.50;5.50;;;;;23.95;42.91;101629.13;5006666;28;45535;-57
2022/05/20 16:41:17;;;;;;;;;5.25;5.00;;;;;23.94;42.86;101633.50;5004914;28;46650;-56
2022/05/20 16:43:43;;;;;;;;;6.75;6.75;;;;;23.94;42.46;101630.03;5003549;28;45462;-56
2022/05/20 16:46:13;;;;;;;;;5.50;4.50;;;;;23.92;42.37;101637.19;5008577;28;45451;-57
2022/05/20 16:48:49;;;;;;;;;4.25;4.25;;;;;23.91;42.27;101640.78;5021929;28;44706;-58
2022/05/20 16:51:15;;;;;;;;;5.50;4.25;;;;;23.90;41.97;101639.06;5017435;28;46661;-57
2022/05/20 16:53:47;;;;;;;;;4.00;3.00;;;;;23.89;42.09;101643.53;5018623;28;44963;-57
2022/05/20 17:01:47;;;;;;;;;3.25;3.25;;;;;23.86;41.93;101648.16;5003857;28;45699;-56
2022/05/20 17:04:18;;;;;;;;;3.00;3.00;;;;;23.85;41.74;101646.44;5002274;28;45772;-57
2022/05/20 17:06:45;;;;;;;;;4.50;3.50;;;;;23.87;41.71;101652.47;5003582;28;45227;-56
2022/05/20 17:09:11;;;;;;;;;3.00;3.00;;;;;23.85;41.53;101651.72;5007626;28;45790;-59
2022/05/20 17:11:38;;;;;;;;;2.00;2.00;;;;;23.84;41.79;101658.81;5004373;28;46970;-56
2022/05/20 17:14:12;;;;;;;;;4.00;4.00;;;;;23.85;41.75;101652.56;5004658;28;45727;-55
2022/05/20 17:16:46;;;;;;;;;5.00;3.25;;;;;23.84;41.76;101644.72;5005256;28;45430;-56
2022/05/20 17:19:13;;;;;;;;;5.00;3.75;;;;;23.84;41.59;101655.31;5005645;28;45836;-56
2022/05/20 17:24:26;;;;;;;;;3.25;3.00;;;;;23.82;41.30;101652.75;5004091;28;45738;-57
2022/05/20 17:27:05;;;;;;;;;3.00;3.00;;;;;23.82;41.05;101652.75;5004044;28;45497;-56
2022/05/20 17:29:34;;;;;;;;;4.00;3.00;;;;;23.78;41.50;101644.13;5004645;28;45322;-58
2022/05/20 17:32:00;;;;;;;;;3.00;3.00;;;;;23.80;41.37;101654.66;5004452;28;46205;-59
2022/05/20 17:34:25;;;;;;;;;3.50;2.25;;;;;23.78;41.42;101652.06;5003966;28;45708;-58
2022/05/20 17:36:51;;;;;;;;;4.75;2.25;;;;;23.78;41.31;101651.22;5003553;28;45486;-57
2022/05/20 17:39:16;;;;;;;;;2.50;2.50;;;;;23.77;41.25;101660.94;5006761;28;45490;-56
2022/05/20 17:41:41;;;;;;;;;3.75;2.00;;;;;23.79;41.00;101674.09;5006202;28;46610;-55
2022/05/20 17:44:07;;;;;;;;;3.50;3.00;;;;;23.79;40.74;101666.16;5004157;28;45312;-57
2022/05/20 17:46:35;;;;;;;;;2.00;2.00;;;;;23.81;41.02;101666.06;5001913;28;45773;-57
2022/05/20 17:49:01;;;;;;;;;2.00;2.00;;;;;23.80;40.75;101667.88;4999206;28;45245;-58
2022/05/20 17:51:26;;;;;;;;;2.50;2.50;;;;;23.77;40.29;101663.59;5000528;28;46595;-57
2022/05/20 17:53:53;;;;;;;;;2.75;1.75;;;;;23.81;40.27;101672.25;5002609;28;45680;-57
2022/05/20 17:56:20;;;;;;;;;2.25;2.25;;;;;23.83;40.59;101672.13;5000490;28;45519;-55
2022/05/20 17:58:46;;;;;;;;;4.00;2.00;;;;;23.81;40.21;101682.81;5001430;28;45442;-57
2022/05/20 18:01:12;;;;;;;;;3.25;2.00;;;;;23.82;40.52;101681.00;5000560;28;46440;-56
2022/05/20 18:03:38;;;;;;;;;2.00;1.75;;;;;23.79;40.48;101687.34;5000723;28;45408;-57
2022/05/20 18:06:03;;;;;;;;;4.25;2.75;;;;;23.80;39.93;101680.25;5000685;28;45368;-57
2022/05/20 18:08:29;;;;;;;;;2.00;2.00;;;;;23.78;39.65;101686.47;5002415;28;45264;-58
2022/05/20 18:10:55;;;;;;;;;2.00;2.00;;;;;23.76;39.95;101680.41;5018136;28;46696;-56
2022/05/20 18:13:20;;;;;;;;;2.25;2.25;;;;;23.76;40.42;101683.06;5012733;28;45410;-57
2022/05/20 18:15:46;;;;;;;;;4.00;2.00;;;;;23.77;39.81;101684.75;5002617;28;45314;-56
2022/05/20 18:18:11;;;;;;;;;2.00;1.50;;;;;23.78;40.07;101689.13;5000135;28;45447;-57
2022/05/20 18:20:39;;;;;;;;;2.75;2.00;;;;;23.78;40.01;101696.22;4999639;28;45518;-57
2022/05/20 18:23:06;;;;;;;;;1.75;1.75;;;;;23.77;39.98;101695.34;4999144;28;45452;-57
2022/05/20 18:25:32;;;;;;;;;5.00;4.00;;;;;23.77;40.17;101703.28;4999738;28;45317;-58
2022/05/20 18:27:58;;;;;;;;;6.25;4.50;;;;;23.77;40.36;101705.94;5001530;28;45178;-57
2022/05/20 18:30:24;;;;;;;;;8.25;6.75;;;;;23.76;39.91;101704.22;5018614;28;46917;-58
2022/05/20 18:32:49;;;;;;;;;9.00;7.00;;;;;23.75;40.07;101705.19;4999854;28;45772;-56
2022/05/20 18:40:44;;;;;;;;;7.00;4.00;;;;;23.77;39.66;101718.34;4997640;28;45248;-59
2022/05/20 18:43:11;;;;;;;;;5.75;3.75;;;;;23.77;39.80;101724.47;4999580;28;45383;-56
2022/05/20 18:45:37;;;;;;;;;4.00;4.00;;;;;23.78;40.03;101731.47;5000201;28;45380;-58
2022/05/20 18:48:03;;;;;;;;;4.50;4.50;;;;;23.78;39.83;101736.78;4999481;28;45535;-56
2022/05/20 18:50:28;;;;;;;;;4.00;4.00;;;;;23.78;39.54;101739.41;4996673;28;47091;-57
2022/05/20 18:52:54;;;;;;;;;4.25;3.00;;;;;23.77;39.43;101737.69;4997308;28;45499;-59
2022/05/20 18:55:21;;;;;;;;;4.25;3.00;;;;;23.77;39.38;101750.94;4998107;28;45364;-58
2022/05/20 18:57:47;;;;;;;;;2.75;2.75;;;;;23.76;39.49;101749.22;4997400;28;45263;-58
2022/05/20 19:00:21;;;;;;;;;2.00;2.00;;;;;23.75;38.95;101747.53;4997657;28;47082;-56
2022/05/20 19:02:47;;;;;;;;;4.00;3.00;;;;;23.74;39.18;101758.19;4997441;28;45584;-58
2022/05/20 19:05:13;;;;;;;;;3.00;2.00;;;;;23.71;39.10;101751.28;4998089;28;45206;-56
2022/05/20 19:07:39;;;;;;;;;2.00;2.00;;;;;23.71;38.88;101756.59;4998513;28;45461;-56
2022/05/20 19:10:09;;;;;;;;;3.75;3.75;;;;;23.72;38.79;101762.72;4997039;28;46855;-57
2022/05/20 19:12:35;;;;;;;;;6.50;4.00;;;;;23.73;39.35;101759.13;4998547;28;45333;-57
2022/05/20 19:15:00;;;;;;;;;4.00;4.00;;;;;23.73;39.33;101759.13;4999488;28;45447;-58
2022/05/20 19:17:27;;;;;;;;;5.00;3.25;;;;;23.74;38.93;101774.06;5003449;28;45269;-57
2022/05/20 19:19:52;;;;;;;;;5.00;4.00;;;;;23.72;39.28;101768.88;5001408;28;46123;-57
2022/05/20 19:22:17;;;;;;;;;4.00;4.00;;;;;23.72;38.90;101775.94;4999652;28;45299;-60
2022/05/20 19:24:43;;;;;;;;;4.75;4.00;;;;;23.70;39.07;101768.09;5007205;28;45188;-60
2022/05/20 19:27:10;;;;;;;;;10.25;6.25;;;;;23.70;39.33;101768.09;5011548;28;45264;-60
2022/05/20 19:29:36;;;;;;;;;7.00;7.00;;;;;23.69;39.05;101771.69;5009998;28;45646;-59
2022/05/20 19:32:03;;;;;;;;;6.00;4.50;;;;;23.68;39.27;101775.25;5004909;28;45442;-61
2022/05/20 19:34:29;;;;;;;;;7.75;5.00;;;;;23.66;38.97;101779.78;4997828;28;45338;-58
2022/05/20 19:36:54;;;;;;;;;5.25;5.25;;;;;23.66;39.40;101778.94;4997889;28;45341;-56
2022/05/20 19:39:20;;;;;;;;;9.50;7.00;;;;;23.65;38.97;101783.38;4998574;28;46445;-58
2022/05/20 19:41:46;;;;;;;;;9.25;5.50;;;;;23.65;39.39;101780.72;4998557;28;45347;-58